createdAt,value
2018-04-19T00:00:57.801Z,55.48
2018-04-19T00:03:31.440Z,55.45
2018-04-19T00:06:04.002Z,55.98
2018-04-19T00:08:36.491Z,55.58
2018-04-19T00:11:09.079Z,55.66
2018-04-19T00:13:41.564Z,55.92
2018-04-19T00:16:14.080Z,55.79
2018-04-19T00:18:46.574Z,55.71
2018-04-19T00:21:19.095Z,55.86
2018-04-19T00:23:51.600Z,55.96
2018-04-19T00:26:24.115Z,55.90
2018-04-19T00:28:56.607Z,55.66
2018-04-19T00:31:29.115Z,55.44
2018-04-19T00:34:02.460Z,55.48
2018-04-19T00:36:34.968Z,56.15
2018-04-19T00:39:07.463Z,56.19
2018-04-19T00:41:39.988Z,55.75
2018-04-19T00:44:12.504Z,55.74
2018-04-19T00:46:45.034Z,56.43
2018-04-19T00:49:17.575Z,55.81
2018-04-19T00:51:50.585Z,56.26
2018-04-19T00:54:23.072Z,56.12
2018-04-19T00:56:55.631Z,56.35
2018-04-19T00:59:28.223Z,56.79
2018-04-19T01:02:00.735Z,57.15
2018-04-19T01:04:33.224Z,56.88
2018-04-19T01:07:05.735Z,57.05
2018-04-19T01:09:38.223Z,56.92
2018-04-19T01:12:10.751Z,56.51
2018-04-19T01:14:43.343Z,56.35
2018-04-19T01:17:15.870Z,56.18
2018-04-19T01:19:48.411Z,56.80
2018-04-19T01:22:20.923Z,56.67
2018-04-19T01:24:53.417Z,56.61
2018-04-19T01:27:25.939Z,56.07
2018-04-19T01:29:58.546Z,56.44
2018-04-19T01:32:31.956Z,57.11
2018-04-19T01:35:04.467Z,57.33
2018-04-19T01:37:36.963Z,56.70
2018-04-19T01:40:09.512Z,57.12
2018-04-19T01:42:42.000Z,57.42
2018-04-19T01:45:14.584Z,56.96
2018-04-19T01:47:47.143Z,56.67
2018-04-19T01:50:19.661Z,56.72
2018-04-19T01:52:52.154Z,56.66
2018-04-19T01:55:24.667Z,57.33
2018-04-19T01:57:57.152Z,56.64
2018-04-19T02:00:29.808Z,57.33
2018-04-19T02:03:02.295Z,57.20
2018-04-19T02:05:34.859Z,56.43
2018-04-19T02:08:07.344Z,56.39
2018-04-19T02:10:39.850Z,56.86
2018-04-19T02:13:12.404Z,56.96
2018-04-19T02:15:44.915Z,56.41
2018-04-19T02:18:17.425Z,57.03
2018-04-19T02:20:49.926Z,56.90
2018-04-19T02:23:22.462Z,57.28
2018-04-19T02:25:54.974Z,57.33
2018-04-19T02:28:27.468Z,57.77
2018-04-19T02:31:00.466Z,57.37
2018-04-19T02:33:32.963Z,57.30
2018-04-19T02:36:05.477Z,57.59
2018-04-19T02:38:37.982Z,57.76
2018-04-19T02:41:10.499Z,57.55
2018-04-19T02:43:43.052Z,57.65
2018-04-19T02:46:15.564Z,57.38
2018-04-19T02:48:48.052Z,57.65
2018-04-19T02:51:20.599Z,57.80
2018-04-19T02:53:53.092Z,57.48
2018-04-19T02:56:25.616Z,57.52
2018-04-19T02:58:58.104Z,57.43
2018-04-19T03:01:31.090Z,57.83
2018-04-19T03:04:03.598Z,57.47
2018-04-19T03:06:36.115Z,57.31
2018-04-19T03:09:08.605Z,57.54
2018-04-19T03:11:41.189Z,57.75
2018-04-19T03:14:13.687Z,57.89
2018-04-19T03:16:46.194Z,57.82
2018-04-19T03:19:18.715Z,58.16
2018-04-19T03:21:51.240Z,57.69
2018-04-19T03:24:23.726Z,57.69
2018-04-19T03:26:57.118Z,57.59
2018-04-19T03:29:29.848Z,58.09
2018-04-19T03:32:02.371Z,58.22
2018-04-19T03:34:34.863Z,57.88
2018-04-19T03:37:07.459Z,57.63
2018-04-19T03:39:40.046Z,57.80
2018-04-19T03:42:12.677Z,58.07
2018-04-19T03:44:45.231Z,57.55
2018-04-19T03:47:17.755Z,57.76
2018-04-19T03:49:50.241Z,57.61
2018-04-19T03:52:22.760Z,57.49
2018-04-19T03:54:55.251Z,58.07
2018-04-19T03:57:27.847Z,57.73
2018-04-19T04:00:01.033Z,57.69
2018-04-19T04:02:33.634Z,58.00
2018-04-19T04:05:06.121Z,57.71
2018-04-19T04:07:38.710Z,58.12
2018-04-19T04:10:11.300Z,57.91
2018-04-19T04:12:43.810Z,57.90
2018-04-19T04:15:16.309Z,58.21
2018-04-19T04:18:01.083Z,57.91
2018-04-19T04:20:45.700Z,57.51
2018-04-19T04:23:30.988Z,57.75
2018-04-19T04:26:03.478Z,57.39
2018-04-19T04:28:35.987Z,57.44
2018-04-19T04:31:08.540Z,58.00
2018-04-19T04:33:41.034Z,58.13
2018-04-19T04:36:13.533Z,57.64
2018-04-19T04:38:46.039Z,57.60
2018-04-19T04:41:18.595Z,57.56
2018-04-19T04:43:51.142Z,57.30
2018-04-19T04:46:23.644Z,57.19
2018-04-19T04:48:56.247Z,57.14
2018-04-19T04:51:28.748Z,57.34
2018-04-19T04:54:02.082Z,57.07
2018-04-19T04:56:34.565Z,57.02
2018-04-19T04:59:07.076Z,57.22
2018-04-19T05:01:39.564Z,57.05
2018-04-19T05:04:12.179Z,56.95
2018-04-19T05:06:44.667Z,56.98
2018-04-19T05:09:17.172Z,56.55
2018-04-19T05:11:49.683Z,56.45
2018-04-19T05:14:22.217Z,55.23
2018-04-19T05:16:54.710Z,54.52
2018-04-19T05:19:27.223Z,53.62
2018-04-19T05:21:59.832Z,51.74
2018-04-19T05:24:32.344Z,50.67
2018-04-19T05:27:04.839Z,47.12
2018-04-19T05:29:37.354Z,44.91
2018-04-19T05:32:09.857Z,43.48
2018-04-19T05:34:42.375Z,41.14
2018-04-19T05:37:14.874Z,38.97
2018-04-19T05:39:47.395Z,36.93
2018-04-19T05:42:19.892Z,35.57
2018-04-19T05:44:52.403Z,33.75
2018-04-19T05:47:25.003Z,32.24
2018-04-19T05:49:57.515Z,30.78
2018-04-19T05:52:30.587Z,29.54
2018-04-19T05:55:03.106Z,29.01
2018-04-19T05:57:35.602Z,30.00
2018-04-19T06:00:08.128Z,31.52
2018-04-19T06:02:40.632Z,33.31
2018-04-19T06:05:13.147Z,34.35
2018-04-19T06:07:45.640Z,36.05
2018-04-19T06:10:18.157Z,37.37
2018-04-19T06:12:50.685Z,37.73
2018-04-19T06:15:23.206Z,38.57
2018-04-19T06:17:55.704Z,38.94
2018-04-19T06:20:28.223Z,37.82
2018-04-19T06:23:00.767Z,37.14
2018-04-19T06:25:33.283Z,36.14
2018-04-19T06:28:05.889Z,35.05
2018-04-19T06:30:38.473Z,35.02
2018-04-19T06:33:10.982Z,36.14
2018-04-19T06:35:43.534Z,37.42
2018-04-19T06:38:16.027Z,38.05
2018-04-19T06:40:48.609Z,38.83
2018-04-19T06:43:21.188Z,39.42
2018-04-19T06:45:53.778Z,40.97
2018-04-19T06:48:26.280Z,40.13
2018-04-19T06:50:58.851Z,41.28
2018-04-19T06:53:31.927Z,42.04
2018-04-19T06:56:04.455Z,42.12
2018-04-19T06:58:36.959Z,41.84
2018-04-19T07:01:09.490Z,42.46
2018-04-19T07:03:42.083Z,43.01
2018-04-19T07:06:14.671Z,42.99
2018-04-19T07:08:47.259Z,42.75
2018-04-19T07:11:19.781Z,43.63
2018-04-19T07:13:52.331Z,43.56
2018-04-19T07:16:24.852Z,42.63
2018-04-19T07:18:57.400Z,42.05
2018-04-19T07:21:30.715Z,42.57
2018-04-19T07:24:03.210Z,42.56
2018-04-19T07:26:35.727Z,42.28
2018-04-19T07:29:08.258Z,41.62
2018-04-19T07:31:40.791Z,41.77
2018-04-19T07:34:13.322Z,40.75
2018-04-19T07:36:45.823Z,40.12
2018-04-19T07:39:18.392Z,41.35
2018-04-19T07:41:51.488Z,41.78
2018-04-19T07:44:24.019Z,41.46
2018-04-19T07:46:56.555Z,40.84
2018-04-19T07:49:29.144Z,41.11
2018-04-19T07:52:02.366Z,39.95
2018-04-19T07:54:34.902Z,38.90
2018-04-19T07:57:07.422Z,37.80
2018-04-19T07:59:40.000Z,38.38
2018-04-19T08:02:12.513Z,38.46
2018-04-19T08:04:45.033Z,37.31
2018-04-19T08:07:17.555Z,37.34
2018-04-19T08:09:50.077Z,37.24
2018-04-19T08:12:22.611Z,35.21
2018-04-19T08:14:55.132Z,35.68
2018-04-19T08:17:27.628Z,36.16
2018-04-19T08:20:00.776Z,35.62
2018-04-19T08:22:33.375Z,37.04
2018-04-19T08:25:05.968Z,36.49
2018-04-19T08:27:38.496Z,34.82
2018-04-19T08:30:11.016Z,34.43
2018-04-19T08:32:43.615Z,37.68
2018-04-19T08:35:16.143Z,36.01
2018-04-19T08:37:48.638Z,33.83
2018-04-19T08:40:21.176Z,34.30
2018-04-19T08:42:53.763Z,35.84
2018-04-19T08:45:26.347Z,33.84
2018-04-19T08:47:58.931Z,34.29
2018-04-19T08:50:32.327Z,33.61
2018-04-19T08:53:04.919Z,34.34
2018-04-19T08:55:37.443Z,34.56
2018-04-19T08:58:09.947Z,35.25
2018-04-19T09:00:42.464Z,34.24
2018-04-19T09:03:15.062Z,33.68
2018-04-19T09:05:47.585Z,33.71
2018-04-19T09:08:20.088Z,32.86
2018-04-19T09:10:52.605Z,32.99
2018-04-19T09:13:25.115Z,32.62
2018-04-19T09:15:57.637Z,33.83
2018-04-19T09:18:30.851Z,32.97
2018-04-19T09:21:03.392Z,30.97
2018-04-19T09:23:35.951Z,30.92
2018-04-19T09:26:08.542Z,31.52
2018-04-19T09:28:41.051Z,31.21
2018-04-19T09:31:13.583Z,30.61
2018-04-19T09:33:46.191Z,31.08
2018-04-19T09:36:18.720Z,31.29
2018-04-19T09:38:51.265Z,30.12
2018-04-19T09:41:23.795Z,29.97
2018-04-19T09:43:56.303Z,30.58
2018-04-19T09:46:28.827Z,30.56
2018-04-19T09:49:02.013Z,29.88
2018-04-19T09:51:34.534Z,30.00
2018-04-19T09:54:07.117Z,31.01
2018-04-19T09:56:39.582Z,29.99
2018-04-19T09:59:12.868Z,28.68
2018-04-19T10:01:51.491Z,29.65
2018-04-19T10:04:30.919Z,30.88
2018-04-19T10:07:03.458Z,29.94
2018-04-19T10:09:35.971Z,28.71
2018-04-19T10:12:08.501Z,29.76
2018-04-19T10:14:41.087Z,28.28
2018-04-19T10:17:13.669Z,28.86
2018-04-19T10:19:46.214Z,27.85
2018-04-19T10:22:18.843Z,28.18
2018-04-19T10:24:51.424Z,28.11
2018-04-19T10:27:24.079Z,27.89
2018-04-19T10:29:56.591Z,26.79
2018-04-19T10:32:29.123Z,27.59
2018-04-19T10:35:02.294Z,27.27
2018-04-19T10:37:34.793Z,26.43
2018-04-19T10:40:07.324Z,27.81
2018-04-19T10:42:39.937Z,26.27
2018-04-19T10:45:12.523Z,28.68
2018-04-19T10:47:45.023Z,25.68
2018-04-19T10:50:17.541Z,26.05
2018-04-19T10:52:50.039Z,25.58
2018-04-19T10:55:22.665Z,26.03
2018-04-19T10:57:55.170Z,26.22
2018-04-19T11:00:27.733Z,26.07
2018-04-19T11:03:00.639Z,27.14
2018-04-19T11:05:33.159Z,24.41
2018-04-19T11:08:05.658Z,24.08
2018-04-19T11:10:38.174Z,24.74
2018-04-19T11:13:10.758Z,25.66
2018-04-19T11:15:43.342Z,25.35
2018-04-19T11:18:15.884Z,26.05
2018-04-19T11:20:48.412Z,25.33
2018-04-19T11:23:21.003Z,25.64
2018-04-19T11:25:53.526Z,24.40
2018-04-19T11:28:26.073Z,24.09
2018-04-19T11:30:58.711Z,24.15
2018-04-19T11:33:31.803Z,24.36
2018-04-19T11:36:04.352Z,24.08
2018-04-19T11:38:36.938Z,25.78
2018-04-19T11:41:09.467Z,24.17
2018-04-19T11:43:42.007Z,24.41
2018-04-19T11:46:14.588Z,24.62
2018-04-19T11:48:47.106Z,24.74
2018-04-19T11:51:19.624Z,25.16
2018-04-19T11:53:52.147Z,24.71
2018-04-19T11:56:24.741Z,24.16
2018-04-19T11:58:57.320Z,24.40
2018-04-19T12:01:29.928Z,24.31
2018-04-19T12:04:02.431Z,23.72
2018-04-19T12:06:34.956Z,24.09
2018-04-19T12:09:07.449Z,24.65
2018-04-19T12:11:39.971Z,23.98
2018-04-19T12:14:12.537Z,24.21
2018-04-19T12:16:45.053Z,23.26
2018-04-19T12:19:17.644Z,23.20
2018-04-19T12:21:50.188Z,23.17
2018-04-19T12:24:22.771Z,23.13
2018-04-19T12:26:55.280Z,22.65
2018-04-19T12:29:27.771Z,23.90
2018-04-19T12:32:00.657Z,24.64
2018-04-19T12:34:33.151Z,22.37
2018-04-19T12:37:05.663Z,22.31
2018-04-19T12:39:38.201Z,21.15
2018-04-19T12:42:10.714Z,20.65
2018-04-19T12:44:43.212Z,20.20
2018-04-19T12:47:15.719Z,18.13
2018-04-19T12:49:48.211Z,18.08
2018-04-19T12:52:20.725Z,17.35
2018-04-19T12:54:53.224Z,17.80
2018-04-19T12:57:25.752Z,17.68
2018-04-19T12:59:58.266Z,17.44
2018-04-19T13:02:30.863Z,18.43
2018-04-19T13:05:03.360Z,17.33
2018-04-19T13:07:35.880Z,17.89
2018-04-19T13:10:08.414Z,18.24
2018-04-19T13:12:40.997Z,18.42
2018-04-19T13:15:13.518Z,18.15
2018-04-19T13:17:46.027Z,17.74
2018-04-19T13:20:18.515Z,18.44
2018-04-19T13:22:51.031Z,18.28
2018-04-19T13:25:23.539Z,17.29
2018-04-19T13:27:56.056Z,16.95
2018-04-19T13:30:28.598Z,16.06
2018-04-19T13:33:01.920Z,14.89
2018-04-19T13:35:34.425Z,14.06
2018-04-19T13:38:06.982Z,14.16
2018-04-19T13:40:39.481Z,14.49
2018-04-19T13:43:11.994Z,14.18
2018-04-19T13:45:44.496Z,16.25
2018-04-19T13:48:17.024Z,18.79
2018-04-19T13:50:49.579Z,19.05
2018-04-19T13:53:22.088Z,19.09
2018-04-19T13:55:54.603Z,18.15
2018-04-19T13:58:27.115Z,18.47
2018-04-19T14:00:59.786Z,18.95
2018-04-19T14:03:32.307Z,19.60
2018-04-19T14:06:04.833Z,20.72
2018-04-19T14:08:37.391Z,21.87
2018-04-19T14:11:09.897Z,22.07
2018-04-19T14:13:42.477Z,23.54
2018-04-19T14:16:14.996Z,23.00
2018-04-19T14:18:47.533Z,22.38
2018-04-19T14:21:20.062Z,23.14
2018-04-19T14:23:52.600Z,23.27
2018-04-19T14:26:25.124Z,23.30
2018-04-19T14:28:57.625Z,24.93
2018-04-19T14:31:30.800Z,25.06
2018-04-19T14:34:03.291Z,24.75
2018-04-19T14:36:35.802Z,24.82
2018-04-19T14:39:08.296Z,23.86
2018-04-19T14:41:40.801Z,23.43
2018-04-19T14:44:13.306Z,24.76
2018-04-19T14:46:45.875Z,24.90
2018-04-19T14:49:18.409Z,25.24
2018-04-19T14:51:50.909Z,25.00
2018-04-19T14:54:23.400Z,25.04
2018-04-19T14:56:55.923Z,25.11
2018-04-19T14:59:28.423Z,25.59
2018-04-19T15:02:00.932Z,25.43
2018-04-19T15:04:33.435Z,26.96
2018-04-19T15:07:06.063Z,25.46
2018-04-19T15:09:38.561Z,26.14
2018-04-19T15:12:11.119Z,26.21
2018-04-19T15:14:43.607Z,26.64
2018-04-19T15:17:16.146Z,26.69
2018-04-19T15:19:48.638Z,27.38
2018-04-19T15:22:21.158Z,25.97
2018-04-19T15:24:53.738Z,26.43
2018-04-19T15:27:26.263Z,27.04
2018-04-19T15:29:58.807Z,27.12
2018-04-19T15:32:32.214Z,27.93
2018-04-19T15:35:04.765Z,28.32
2018-04-19T15:37:37.284Z,27.90
2018-04-19T15:40:09.787Z,27.33
2018-04-19T15:42:42.307Z,28.20
2018-04-19T15:45:14.841Z,28.10
2018-04-19T15:47:47.375Z,27.78
2018-04-19T15:50:19.908Z,28.13
2018-04-19T15:52:52.517Z,27.87
2018-04-19T15:55:25.087Z,27.06
2018-04-19T15:57:57.611Z,28.36
2018-04-19T16:00:30.760Z,28.15
2018-04-19T16:03:03.279Z,27.60
2018-04-19T16:05:35.772Z,28.20
2018-04-19T16:08:08.331Z,27.83
2018-04-19T16:10:40.830Z,28.18
2018-04-19T16:13:13.345Z,27.95
2018-04-19T16:15:45.857Z,28.30
2018-04-19T16:18:18.376Z,28.36
2018-04-19T16:20:50.879Z,29.25
2018-04-19T16:23:23.471Z,29.25
2018-04-19T16:25:55.962Z,27.80
2018-04-19T16:28:28.481Z,28.23
2018-04-19T16:31:01.911Z,28.93
2018-04-19T16:33:34.555Z,29.06
2018-04-19T16:36:07.015Z,30.11
2018-04-19T16:38:39.591Z,29.94
2018-04-19T16:41:12.136Z,29.48
2018-04-19T16:43:44.647Z,29.52
2018-04-19T16:46:17.139Z,29.63
2018-04-19T16:48:49.659Z,29.75
2018-04-19T16:51:22.279Z,30.08
2018-04-19T16:53:54.871Z,30.04
2018-04-19T16:56:27.439Z,30.21
2018-04-19T16:59:00.538Z,30.30
2018-04-19T17:01:33.039Z,30.14
2018-04-19T17:04:05.557Z,29.80
2018-04-19T17:06:38.058Z,31.10
2018-04-19T17:09:10.616Z,30.31
2018-04-19T17:11:43.284Z,30.65
2018-04-19T17:14:15.807Z,31.77
2018-04-19T17:16:48.299Z,30.17
2018-04-19T17:19:20.856Z,29.90
2018-04-19T17:21:53.416Z,31.40
2018-04-19T17:24:25.900Z,31.43
2018-04-19T17:26:58.484Z,31.76
2018-04-19T17:29:31.899Z,32.06
2018-04-19T17:32:04.482Z,32.07
2018-04-19T17:34:37.183Z,32.73
2018-04-19T17:37:09.840Z,32.62
2018-04-19T17:39:42.544Z,32.94
2018-04-19T17:42:15.126Z,32.78
2018-04-19T17:44:47.616Z,33.92
2018-04-19T17:47:20.166Z,34.90
2018-04-19T17:49:52.689Z,34.18
2018-04-19T17:52:25.210Z,34.61
2018-04-19T17:54:57.727Z,35.13
2018-04-19T17:57:30.967Z,36.00
2018-04-19T18:00:03.479Z,36.13
2018-04-19T18:02:36.331Z,36.27
2018-04-19T18:05:08.904Z,36.85
2018-04-19T18:07:41.510Z,36.90
2018-04-19T18:10:14.053Z,37.81
2018-04-19T18:12:46.577Z,37.98
2018-04-19T18:15:19.243Z,38.52
2018-04-19T18:17:51.764Z,38.91
2018-04-19T18:20:24.260Z,38.85
2018-04-19T18:22:56.784Z,38.92
2018-04-19T18:25:29.303Z,39.27
2018-04-19T18:28:02.086Z,40.00
2018-04-19T18:30:34.739Z,39.55
2018-04-19T18:33:07.251Z,40.14
2018-04-19T18:35:39.749Z,40.08
2018-04-19T18:38:12.272Z,40.53
2018-04-19T18:40:44.767Z,40.63
2018-04-19T18:43:17.295Z,40.49
2018-04-19T18:45:49.788Z,40.56
2018-04-19T18:48:22.362Z,40.59
2018-04-19T18:50:54.950Z,41.41
2018-04-19T18:53:27.554Z,40.93
2018-04-19T18:56:00.684Z,41.76
2018-04-19T18:58:33.214Z,41.79
2018-04-19T19:01:05.706Z,42.47
2018-04-19T19:03:38.240Z,41.96
2018-04-19T19:06:10.890Z,42.01
2018-04-19T19:08:43.518Z,42.17
2018-04-19T19:11:16.162Z,42.68
2018-04-19T19:13:48.721Z,42.69
2018-04-19T19:16:21.323Z,42.83
2018-04-19T19:19:05.883Z,43.57
2018-04-19T19:21:38.381Z,43.26
2018-04-19T19:24:10.916Z,43.43
2018-04-19T19:26:43.552Z,44.58
2018-04-19T19:29:16.069Z,45.64
2018-04-19T19:31:48.559Z,44.76
2018-04-19T19:34:21.109Z,43.22
2018-04-19T19:36:53.679Z,44.09
2018-04-19T19:39:26.383Z,44.08
2018-04-19T19:41:58.875Z,44.32
2018-04-19T19:44:32.143Z,43.65
2018-04-19T19:47:04.758Z,44.77
2018-04-19T19:49:37.435Z,44.32
2018-04-19T19:52:10.024Z,43.52
2018-04-19T19:54:42.731Z,45.05
2018-04-19T19:57:15.254Z,44.97
2018-04-19T19:59:47.766Z,45.55
2018-04-19T20:02:20.372Z,44.91
2018-04-19T20:04:52.912Z,45.00
2018-04-19T20:07:25.415Z,45.97
2018-04-19T20:09:57.937Z,46.53
2018-04-19T20:12:31.566Z,46.38
2018-04-19T20:15:04.090Z,47.37
2018-04-19T20:17:36.603Z,47.32
2018-04-19T20:20:09.120Z,47.61
2018-04-19T20:22:41.629Z,47.17
2018-04-19T20:25:14.159Z,47.53
2018-04-19T20:27:46.650Z,48.17
2018-04-19T20:30:19.175Z,48.16
2018-04-19T20:32:51.729Z,48.05
2018-04-19T20:35:24.260Z,47.67
2018-04-19T20:37:56.790Z,48.13
2018-04-19T20:40:29.356Z,47.79
2018-04-19T20:43:02.195Z,47.53
2018-04-19T20:45:34.720Z,47.44
2018-04-19T20:48:07.216Z,47.52
2018-04-19T20:50:39.726Z,48.48
2018-04-19T20:53:12.312Z,48.46
2018-04-19T20:55:44.823Z,48.68
2018-04-19T20:58:17.380Z,48.39
2018-04-19T21:00:49.966Z,48.60
2018-04-19T21:03:22.546Z,48.45
2018-04-19T21:05:55.060Z,48.35
2018-04-19T21:08:27.624Z,49.11
2018-04-19T21:11:00.291Z,48.64
2018-04-19T21:13:32.806Z,49.29
2018-04-19T21:16:05.327Z,48.96
2018-04-19T21:18:37.859Z,48.89
2018-04-19T21:21:10.446Z,48.92
2018-04-19T21:23:42.968Z,49.22
2018-04-19T21:26:15.463Z,49.89
2018-04-19T21:28:47.979Z,49.41
2018-04-19T21:31:20.492Z,49.79
2018-04-19T21:33:53.021Z,50.50
2018-04-19T21:36:25.515Z,49.62
2018-04-19T21:38:58.029Z,50.30
2018-04-19T21:41:30.857Z,50.65
2018-04-19T21:44:03.403Z,50.96
2018-04-19T21:46:35.899Z,50.88
2018-04-19T21:49:08.467Z,50.51
2018-04-19T21:51:40.984Z,50.43
2018-04-19T21:54:13.551Z,50.21
2018-04-19T21:56:46.051Z,50.74
2018-04-19T21:59:18.621Z,50.72
2018-04-19T22:01:51.498Z,50.69
2018-04-19T22:04:24.012Z,50.77
2018-04-19T22:06:56.520Z,51.00
2018-04-19T22:09:29.062Z,51.45
2018-04-19T22:12:02.488Z,51.86
2018-04-19T22:14:35.055Z,51.18
2018-04-19T22:17:07.555Z,51.92
2018-04-19T22:19:40.079Z,52.38
2018-04-19T22:22:12.584Z,52.85
2018-04-19T22:24:45.090Z,52.79
2018-04-19T22:27:17.688Z,52.38
2018-04-19T22:29:50.282Z,52.75
2018-04-19T22:32:22.812Z,53.02
2018-04-19T22:34:55.332Z,52.68
2018-04-19T22:37:27.834Z,52.73
2018-04-19T22:40:01.524Z,53.10
2018-04-19T22:42:34.033Z,52.39
2018-04-19T22:45:06.627Z,52.72
2018-04-19T22:47:39.191Z,52.67
2018-04-19T22:50:11.775Z,52.50
2018-04-19T22:52:44.358Z,51.74
2018-04-19T22:55:16.872Z,52.38
2018-04-19T22:57:49.372Z,52.64
2018-04-19T23:00:22.651Z,53.32
2018-04-19T23:02:55.155Z,52.93
2018-04-19T23:05:27.681Z,53.05
2018-04-19T23:08:00.921Z,52.85
2018-04-19T23:10:33.490Z,52.97
2018-04-19T23:13:05.992Z,53.46
2018-04-19T23:15:38.520Z,52.90
2018-04-19T23:18:11.047Z,52.92
2018-04-19T23:20:43.575Z,53.22
2018-04-19T23:23:16.084Z,53.60
2018-04-19T23:25:48.597Z,53.60
2018-04-19T23:28:21.181Z,54.21
2018-04-19T23:30:53.755Z,53.73
2018-04-19T23:33:26.268Z,53.49
2018-04-19T23:35:58.791Z,53.51
2018-04-19T23:38:32.112Z,53.46
2018-04-19T23:41:04.632Z,53.58
2018-04-19T23:43:37.195Z,54.21
2018-04-19T23:46:09.778Z,54.68
2018-04-19T23:48:42.271Z,54.54
2018-04-19T23:51:14.793Z,54.64
2018-04-19T23:53:47.301Z,53.92
2018-04-19T23:56:19.987Z,54.03
2018-04-19T23:58:52.507Z,54.65
